Country
Station

 

Weather  for  McConnell Air Force Base  -  United States    United States

  
32 °C (90 °F)
    
 
 

Current METAR for McConnell Air Force Base is :

KIAB 201956Z AUTO 12012KT 10SM FEW140 FEW200 32/20 A2973 RMK AO2 SLP056 T03160199

 

This is a report for McConnell Air Force Base - United States.
 
The report was made 29 minutes ago, at 19:56 UTC .
The wind was blowing at a speed of 6.2 meters per second (13.8 miles per hour) from east/southeast (120°).
 
The temperature was 32 °C (90 °F), with a dew-point at 20 °C (68 °F).
The temperature felt like 34 °C (94 °F).
 
The atmospheric pressure was 1007 hPa (29.73 inHg).
The relative humidity was 49.2%.
 
There were a few clouds at a height of 4267 meters (14000 feet) and a few clouds at a height of 6096 meters (20000 feet).
 
The overall visibility was 16.1 kilometers (10.0 miles).
 

 
 
 
 

Country :   A   B   C   D   E   F   G   H   I   J   K   L   M   N   O   P   Q   R   S   T   U   V   W   Y   Z

 

Site Info  |  Disclaimer  |  Credits  |  Privacy
Contact us  |  Add to favorites
© 2013-2019 METARs - All rights reserved